• Join FlightAware (Why Join?)
  • Login
  • US Flag 
12:34AM EDT


 

Airport Tracker/Info


-or-


 

Live Flight TrackerFlight Track Log ✈ N1922T ✈ 14-Aug-2014 ✈ KDHT - KSGS

Flight Track Log - Related Links

Times and Time Zones

All times are in EDT time to prevent confusion due to time zone crossing. See the N1922T flight status page for this flight to view local times or setup timezone preferences in your user account.

Time Position Orientation Groundspeed Altitude Reporting Facility
EDT Latitude Longitude Course Direction KTS MPH feet Rate Location/Type
11:17AM 36.1733 -102.4544 35° Northeast 143 165 7,100  Level Kansas City Center
11:18AM 36.2061 -102.4258 35° Northeast 143 165 7,600 420 Climbing Kansas City Center
11:19AM 36.2378 -102.3956 38° Northeast 143 165 8,000 420 Climbing Kansas City Center
11:20AM 36.2700 -102.3664 36° Northeast 143 165 8,500 420 Climbing Kansas City Center
11:21AM 36.3003 -102.3386 36° Northeast 142 163 8,900 420 Climbing Kansas City Center
11:22AM 36.3383 -102.3025 37° Northeast 141 162 9,400 420 Climbing Kansas City Center
11:23AM 36.3717 -102.2736 35° Northeast 141 162 9,800 360 Climbing Kansas City Center
11:24AM 36.4056 -102.2422 37° Northeast 146 168 10,200 420 Climbing Kansas City Center
11:25AM 36.4386 -102.2097 38° Northeast 148 170 10,700 420 Climbing Kansas City Center
11:26AM 36.4722 -102.1786 37° Northeast 150 173 11,100 420 Climbing Kansas City Center
11:27AM 36.5064 -102.1472 36° Northeast 150 173 11,600 480 Climbing Kansas City Center
11:28AM 36.5461 -102.1094 37° Northeast 150 173 12,100 480 Climbing Kansas City Center
11:29AM 36.5797 -102.0789 36° Northeast 150 173 12,600 420 Climbing Kansas City Center
11:30AM 36.6128 -102.0492 36° Northeast 148 170 13,000 180 Climbing Kansas City Center
11:32AM 36.6481 -102.0128 40° Northeast 162 186 13,000  Level Kansas City Center
11:33AM 36.6947 -101.9722 35° Northeast 177 204 13,000  Level Kansas City Center
11:34AM 36.7328 -101.9353 38° Northeast 181 208 13,000  Level Kansas City Center
11:35AM 36.7775 -101.8958 35° Northeast 180 207 13,000  Level Kansas City Center
11:36AM 36.8147 -101.8592 38° Northeast 179 206 13,000  Level Kansas City Center
11:37AM 36.8586 -101.8186 36° Northeast 179 206 13,000  Level Kansas City Center
11:38AM 36.8942 -101.7825 39° Northeast 176 203 13,000  Level Kansas City Center
11:39AM 36.9383 -101.7442 35° Northeast 175 201 13,000  Level Kansas City Center
11:40AM 36.9753 -101.7094 37° Northeast 175 201 13,000  Level Kansas City Center
11:41AM 37.0178 -101.6689 37° Northeast 174 200 13,000  Level Kansas City Center
11:42AM 37.0542 -101.6336 38° Northeast 174 200 13,000  Level Kansas City Center
11:43AM 37.0981 -101.5919 37° Northeast 174 200 13,000  Level Kansas City Center
11:44AM 37.1353 -101.5569 37° Northeast 174 200 13,000  Level Kansas City Center
11:45AM 37.1789 -101.5153 37° Northeast 175 201 13,000  Level Kansas City Center
11:46AM 37.2167 -101.4786 38° Northeast 175 201 13,000  Level Kansas City Center
11:47AM 37.2606 -101.4381 36° Northeast 176 203 13,000  Level Kansas City Center
11:48AM 37.2981 -101.4014 38° Northeast 176 203 13,000  Level Kansas City Center
11:49AM 37.3428 -101.3589 37° Northeast 177 204 13,000  Level Kansas City Center
11:50AM 37.3808 -101.3233 37° Northeast 178 205 13,000  Level Kansas City Center
11:51AM 37.4244 -101.2806 38° Northeast 178 205 13,000  Level Kansas City Center
11:52AM 37.4619 -101.2447 37° Northeast 178 205 13,000  Level Kansas City Center
11:53AM 37.4997 -101.2081 38° Northeast 178 205 13,000  Level Kansas City Center
11:55AM 37.5886 -101.1231 37° Northeast 177 204 13,000  Level Denver Center
11:56AM 37.6261 -101.0867 38° Northeast 177 204 13,000  Level Denver Center
11:57AM 37.6642 -101.0506 37° Northeast 178 205 13,000  Level Kansas City Center
11:59AM 37.7461 -100.9722 37° Northeast 177 204 13,000  Level Denver Center
12:01PM 37.7908 -100.9289 37° Northeast 178 205 13,000  Level Kansas City Center
12:02PM 37.8278 -100.8917 39° Northeast 178 205 13,000  Level Kansas City Center
12:03PM 37.8644 -100.8558 38° Northeast 178 205 13,000  Level Kansas City Center
12:05PM 37.9525 -100.7700 38° Northeast 177 204 13,000  Level Denver Center
12:06PM 37.9908 -100.7331 37° Northeast 178 205 13,000  Level Kansas City Center
12:07PM 38.0283 -100.6967 37° Northeast 178 205 13,000  Level Kansas City Center
12:08PM 38.0736 -100.6519 38° Northeast 179 206 13,000  Level Kansas City Center
12:09PM 38.1119 -100.6142 38° Northeast 181 208 13,000  Level Kansas City Center
12:10PM 38.1567 -100.5694 38° Northeast 182 209 13,000  Level Kansas City Center
12:11PM 38.1953 -100.5317 38° Northeast 182 209 13,000  Level Kansas City Center
12:13PM 38.2783 -100.4503 38° Northeast 182 209 13,000  Level Kansas City Center
12:14PM 38.3228 -100.4061 38° Northeast 182 209 13,000  Level Kansas City Center
12:15PM 38.3608 -100.3689 37° Northeast 182 209 13,000  Level Kansas City Center
12:16PM 38.4053 -100.3250 38° Northeast 181 208 13,000  Level Kansas City Center
12:17PM 38.4436 -100.2872 38° Northeast 181 208 13,000  Level Kansas City Center
12:18PM 38.4883 -100.2431 38° Northeast 182 209 13,000  Level Kansas City Center
12:19PM 38.5264 -100.2050 38° Northeast 181 208 13,000  Level Kansas City Center
12:20PM 38.5647 -100.1656 39° Northeast 184 212 13,000  Level Kansas City Center
12:21PM 38.6100 -100.1214 37° Northeast 184 212 13,000  Level Kansas City Center
12:22PM 38.6483 -100.0825 38° Northeast 184 212 13,000  Level Kansas City Center
12:23PM 38.6928 -100.0378 38° Northeast 183 211 13,000  Level Kansas City Center
12:24PM 38.7333 -99.9994 36° Northeast 184 212 13,000  Level Kansas City Center
12:25PM 38.7789 -99.9519 39° Northeast 185 213 13,000  Level Kansas City Center
12:26PM 38.8167 -99.9150 37° Northeast 184 212 13,000  Level Kansas City Center
12:27PM 38.8628 -99.8683 38° Northeast 185 213 13,000  Level Kansas City Center
12:28PM 38.9006 -99.8306 38° Northeast 183 211 13,000  Level Denver Center
12:29PM 38.9456 -99.7825 40° Northeast 184 212 13,000  Level Denver Center
12:31PM 38.9842 -99.7447 37° Northeast 184 212 13,000  Level Denver Center
12:32PM 39.0297 -99.6986 38° Northeast 183 211 13,000  Level Denver Center
12:33PM 39.0672 -99.6608 38° Northeast 183 211 13,000  Level Denver Center
12:34PM 39.1114 -99.6175 37° Northeast 181 208 13,000  Level Denver Center
12:35PM 39.1478 -99.5797 39° Northeast 179 206 13,000  Level Denver Center
12:36PM 39.1906 -99.5356 39° Northeast 178 205 13,000  Level Denver Center
12:37PM 39.2314 -99.4939 38° Northeast 178 205 13,000  Level Denver Center
12:38PM 39.2689 -99.4556 38° Northeast 178 205 13,000  Level Denver Center
12:39PM 39.3136 -99.4108 38° Northeast 180 207 13,000  Level Denver Center
12:40PM 39.3514 -99.3728 38° Northeast 181 208 13,000  Level Denver Center
12:41PM 39.3950 -99.3267 39° Northeast 181 208 13,000  Level Denver Center
12:42PM 39.4328 -99.2894 37° Northeast 181 208 13,000  Level Denver Center
12:43PM 39.4714 -99.2492 39° Northeast 181 208 13,000  Level Denver Center
12:44PM 39.5108 -99.2072 39° Northeast 182 209 13,000  Level Denver Center
12:45PM 39.5572 -99.1600 38° Northeast 179 206 13,000  Level Denver Center
12:46PM 39.5953 -99.1214 38° Northeast 178 205 13,000  Level Denver Center
12:47PM 39.6325 -99.0825 39° Northeast 175 201 13,000  Level Denver Center
12:48PM 39.6697 -99.0444 38° Northeast 174 200 13,000  Level Denver Center
12:49PM 39.7061 -99.0058 39° Northeast 172 198 13,000  Level Denver Center
12:50PM 39.7419 -98.9667 40° Northeast 170 196 13,000  Level Denver Center
12:51PM 39.7847 -98.9189 41° Northeast 170 196 13,000  Level Denver Center
12:52PM 39.8231 -98.8828 36° Northeast 170 196 13,000  Level Denver Center
12:53PM 39.8614 -98.8439 38° Northeast 171 197 13,000  Level Denver Center
12:54PM 39.8992 -98.8042 39° Northeast 172 198 13,000  Level Denver Center
12:55PM 39.9292 -98.7708 40° Northeast 172 198 13,000  Level Minneapolis Center
12:56PM 39.9739 -98.7247 38° Northeast 172 198 13,000  Level Minneapolis Center
12:57PM 40.0117 -98.6833 40° Northeast 172 198 13,000  Level Minneapolis Center
12:58PM 40.0494 -98.6472 36° Northeast 172 198 13,000  Level Minneapolis Center
12:59PM 40.0850 -98.6086 40° Northeast 171 197 13,000  Level Minneapolis Center
01:00PM 40.1233 -98.5703 37° Northeast 171 197 13,000  Level Minneapolis Center
01:01PM 40.1583 -98.5314 40° Northeast 170 196 13,000  Level Minneapolis Center
01:02PM 40.2028 -98.4850 39° Northeast 170 196 13,000  Level Minneapolis Center
01:04PM 40.2394 -98.4458 39° Northeast 170 196 13,000  Level Minneapolis Center
01:05PM 40.2761 -98.4067 39° Northeast 170 196 13,000  Level Minneapolis Center
01:06PM 40.3131 -98.3678 39° Northeast 170 196 13,000  Level Minneapolis Center
01:07PM 40.3492 -98.3286 40° Northeast 170 196 13,000  Level Minneapolis Center
01:08PM 40.3864 -98.2900 38° Northeast 170 196 13,000  Level Minneapolis Center
01:09PM 40.4300 -98.2422 40° Northeast 170 196 13,000  Level Minneapolis Center
01:10PM 40.4672 -98.2033 38° Northeast 170 196 13,000  Level Minneapolis Center
01:11PM 40.5039 -98.1639 39° Northeast 170 196 13,000  Level Minneapolis Center
01:12PM 40.5394 -98.1242 40° Northeast 170 196 13,100  Climbing Minneapolis Center
01:13PM 40.5753 -98.0875 38° Northeast 169 194 13,000 -60 Descending Minneapolis Center
01:14PM 40.6181 -98.0403 40° Northeast 168 193 13,000  Level Minneapolis Center
01:15PM 40.6522 -98.0017 41° Northeast 168 193 13,000  Level Minneapolis Center
01:16PM 40.6881 -97.9653 38° Northeast 167 192 13,000  Level Minneapolis Center
01:17PM 40.7231 -97.9278 39° Northeast 167 192 13,000  Level Minneapolis Center
01:18PM 40.7578 -97.8892 40° Northeast 167 192 13,000  Level Minneapolis Center
01:19PM 40.7925 -97.8522 39° Northeast 166 191 13,000  Level Minneapolis Center
01:20PM 40.8350 -97.8061 39° Northeast 166 191 13,000  Level Minneapolis Center
01:21PM 40.8706 -97.7678 39° Northeast 166 191 13,000  Level Minneapolis Center
01:22PM 40.9058 -97.7297 39° Northeast 166 191 13,000  Level Minneapolis Center
01:23PM 40.9411 -97.6914 39° Northeast 166 191 13,000  Level Minneapolis Center
01:24PM 40.9758 -97.6528 40° Northeast 166 191 13,000  Level Minneapolis Center
01:25PM 41.0114 -97.6139 40° Northeast 166 191 13,000  Level Minneapolis Center
01:26PM 41.0536 -97.5681 39° Northeast 165 190 13,000  Level Minneapolis Center
01:27PM 41.0892 -97.5289 40° Northeast 165 190 13,000  Level Minneapolis Center
01:28PM 41.1250 -97.4908 39° Northeast 166 191 13,000  Level Minneapolis Center
01:29PM 41.1597 -97.4522 40° Northeast 165 190 13,000  Level Minneapolis Center
01:30PM 41.1931 -97.4147 40° Northeast 163 188 13,000  Level Minneapolis Center
01:31PM 41.2278 -97.3781 38° Northeast 161 185 13,000  Level Minneapolis Center
01:33PM 41.2678 -97.3331 40° Northeast 160 184 13,000  Level Minneapolis Center
01:34PM 41.3014 -97.2961 40° Northeast 160 184 13,000  Level Minneapolis Center
01:35PM 41.3347 -97.2572 41° Northeast 160 184 13,000  Level Minneapolis Center
01:36PM 41.3706 -97.2189 39° Northeast 160 184 13,000  Level Minneapolis Center
01:37PM 41.4053 -97.1803 40° Northeast 160 184 13,000  Level Minneapolis Center
01:38PM 41.4397 -97.1417 40° Northeast 161 185 13,000  Level Minneapolis Center
01:39PM 41.4811 -97.0947 40° Northeast 161 185 13,000  Level Minneapolis Center
01:40PM 41.5158 -97.0569 39° Northeast 161 185 13,000  Level Minneapolis Center
01:41PM 41.5497 -97.0175 41° Northeast 161 185 13,000  Level Minneapolis Center
01:42PM 41.5844 -96.9792 40° Northeast 161 185 13,000  Level Minneapolis Center
01:43PM 41.6197 -96.9419 38° Northeast 161 185 13,000  Level Minneapolis Center
01:44PM 41.6539 -96.9022 41° Northeast 161 185 13,000  Level Minneapolis Center
01:45PM 41.6947 -96.8567 40° Northeast 161 185 13,000  Level Minneapolis Center
01:46PM 41.7283 -96.8186 40° Northeast 161 185 13,000  Level Minneapolis Center
01:47PM 41.7617 -96.7797 41° Northeast 161 185 13,000  Level Minneapolis Center
01:48PM 41.7964 -96.7419 39° Northeast 161 185 13,000  Level Minneapolis Center
01:49PM 41.8303 -96.7033 40° Northeast 161 185 13,000  Level Minneapolis Center
01:50PM 41.8642 -96.6639 41° Northeast 161 185 13,000  Level Minneapolis Center
01:51PM 41.8986 -96.6242 41° Northeast 161 185 13,000  Level Minneapolis Center
01:52PM 41.9408 -96.5789 39° Northeast 161 185 13,000  Level Minneapolis Center
01:53PM 41.9753 -96.5386 41° Northeast 161 185 13,100  Climbing Minneapolis Center
01:54PM 42.0100 -96.4989 40° Northeast 162 186 13,000 -60 Descending Minneapolis Center
01:55PM 42.0444 -96.4592 41° Northeast 162 186 13,000  Level Minneapolis Center
01:56PM 42.0783 -96.4192 41° Northeast 162 186 13,000  Level Minneapolis Center
01:57PM 42.1131 -96.3803 40° Northeast 162 186 13,000  Level Minneapolis Center
01:58PM 42.1542 -96.3331 40° Northeast 162 186 13,100  Climbing Minneapolis Center
01:59PM 42.1892 -96.2944 39° Northeast 162 186 13,000 -60 Descending Minneapolis Center
02:00PM 42.2233 -96.2544 41° Northeast 162 186 13,000  Level Minneapolis Center
02:02PM 42.2572 -96.2139 42° Northeast 162 186 13,000  Level Minneapolis Center
02:03PM 42.2919 -96.1731 41° Northeast 162 186 13,000  Level Minneapolis Center
02:04PM 42.3247 -96.1369 39° Northeast 161 185 13,000  Level Minneapolis Center
02:05PM 42.3661 -96.0883 41° Northeast 160 184 13,000  Level Minneapolis Center
02:06PM 42.3997 -96.0500 40° Northeast 160 184 13,000  Level Minneapolis Center
02:07PM 42.4342 -96.0092 41° Northeast 160 184 13,000  Level Minneapolis Center
02:08PM 42.4675 -95.9700 41° Northeast 160 184 13,000  Level Minneapolis Center
02:09PM 42.5019 -95.9275 42° Northeast 164 189 13,000  Level Minneapolis Center
02:10PM 42.5358 -95.8853 43° Northeast 164 189 13,000  Level Minneapolis Center
02:11PM 42.5764 -95.8406 39° Northeast 163 188 13,000  Level Minneapolis Center
02:12PM 42.6103 -95.8036 39° Northeast 159 183 13,000  Level Minneapolis Center
02:13PM 42.6444 -95.7639 41° Northeast 159 183 13,000  Level Minneapolis Center
02:14PM 42.6772 -95.7242 42° Northeast 159 183 13,000  Level Minneapolis Center
02:15PM 42.7111 -95.6850 40° Northeast 159 183 13,000  Level Minneapolis Center
02:16PM 42.7492 -95.6386 42° Northeast 159 183 13,000  Level Minneapolis Center
02:17PM 42.7828 -95.6006 40° Northeast 159 183 13,000  Level Minneapolis Center
02:18PM 42.8161 -95.5611 41° Northeast 159 183 13,000  Level Minneapolis Center
02:19PM 42.8494 -95.5211 41° Northeast 159 183 13,100  Climbing Minneapolis Center
02:20PM 42.8900 -95.4719 42° Northeast 160 184 13,000 -60 Descending Minneapolis Center
02:21PM 42.9247 -95.4328 40° Northeast 160 184 13,000  Level Minneapolis Center
02:22PM 42.9578 -95.3936 41° Northeast 160 184 13,100  Climbing Minneapolis Center
02:23PM 42.9922 -95.3519 41° Northeast 160 184 13,000  Descending Minneapolis Center
02:24PM 43.0258 -95.3114 41° Northeast 161 185 13,100  Climbing Minneapolis Center
02:25PM 43.0667 -95.2622 41° Northeast 162 186 13,100  Level Minneapolis Center
02:26PM 43.1022 -95.2214 40° Northeast 165 190 13,100  Level Minneapolis Center
02:27PM 43.1367 -95.1808 41° Northeast 165 190 13,100  Level Minneapolis Center
02:28PM 43.1717 -95.1397 41° Northeast 166 191 13,100  Level Minneapolis Center
02:30PM 43.2061 -95.0967 42° Northeast 167 192 13,200  Climbing Minneapolis Center
02:31PM 43.2475 -95.0472 41° Northeast 166 191 13,100 -60 Descending Minneapolis Center
02:32PM 43.2806 -95.0064 42° Northeast 165 190 13,100  Level Minneapolis Center
02:33PM 43.3156 -94.9653 41° Northeast 165 190 13,200  Climbing Minneapolis Center
02:34PM 43.3492 -94.9250 41° Northeast 165 190 13,100  Descending Minneapolis Center
02:35PM 43.3819 -94.8844 42° Northeast 162 186 13,200  Climbing Minneapolis Center
02:36PM 43.4222 -94.8350 42° Northeast 162 186 13,100 -60 Descending Minneapolis Center
02:37PM 43.4547 -94.7950 42° Northeast 161 185 13,100  Level Minneapolis Center
02:38PM 43.4889 -94.7544 41° Northeast 161 185 13,100  Level Minneapolis Center
02:39PM 43.5217 -94.7139 42° Northeast 161 185 13,100  Level Minneapolis Center
02:40PM 43.5556 -94.6725 42° Northeast 161 185 13,100 -60 Level Minneapolis Center
02:41PM 43.5886 -94.6331 41° Northeast 161 185 13,000  Descending Minneapolis Center
02:42PM 43.6275 -94.5839 42° Northeast 161 185 13,100  Climbing Minneapolis Center
02:43PM 43.6608 -94.5428 42° Northeast 160 184 13,100 -60 Level Minneapolis Center
02:44PM 43.6947 -94.5028 40° Northeast 160 184 13,000 -60 Descending Minneapolis Center
02:45PM 43.7283 -94.4600 43° Northeast 161 185 13,000  Level Minneapolis Center
02:46PM 43.7617 -94.4192 41° Northeast 161 185 13,100  Climbing Minneapolis Center
02:47PM 43.8017 -94.3700 42° Northeast 161 185 13,000 -60 Descending Minneapolis Center
02:48PM 43.8356 -94.3289 41° Northeast 161 185 13,000  Level Minneapolis Center
02:49PM 43.8692 -94.2878 41° Northeast 161 185 13,100  Climbing Minneapolis Center
02:50PM 43.9033 -94.2431 43° Northeast 162 186 13,100  Level Minneapolis Center
02:51PM 43.9372 -94.2011 42° Northeast 162 186 13,100  Level Minneapolis Center
02:52PM 43.9711 -94.1597 41° Northeast 162 186 13,100 -60 Level Minneapolis Center
02:53PM 44.0039 -94.1175 43° Northeast 162 186 13,000  Descending Minneapolis Center
02:54PM 44.0442 -94.0678 42° Northeast 162 186 13,100 -300 Climbing Minneapolis Center
02:55PM 44.0794 -94.0236 42° Northeast 167 192 12,400 -720 Descending Minneapolis Center
02:56PM 44.1197 -93.9747 41° Northeast 191 220 11,700 -840 Descending Minneapolis Center
02:58PM 44.1575 -93.9247 44° Northeast 189 217 10,700 -960 Descending Minneapolis Center
02:59PM 44.1900 -93.8667 52° Northeast 189 217 9,800 -960 Descending Minneapolis Center
03:00PM 44.2222 -93.8072 53° Northeast 190 219 8,700 -1,140 Descending Minneapolis Center
03:01PM 44.2603 -93.7364 53° Northeast 191 220 7,500 -1,140 Descending Minneapolis Center
03:02PM 44.2936 -93.6775 52° Northeast 191 220 6,400 -1,020 Descending Minneapolis Center
03:03PM 44.3272 -93.6186 51° Northeast 193 222 5,400 -780 Descending Minneapolis Center
03:04PM 44.3581 -93.5642 52° Northeast 183 211 4,900 -300 Descending Minneapolis Center
03:05PM 44.3872 -93.5147 50° Northeast 170 196 4,800 -60 Descending Minneapolis Center
03:06PM 44.4178 -93.4586 53° Northeast 155 178 4,800  Level Minneapolis Center
03:07PM 44.4419 -93.4125 54° Northeast 152 175 4,800 -180 Level Minneapolis Center
03:08PM 44.4672 -93.3647 53° Northeast 152 175 4,500 -420 Descending Minneapolis Center
03:09PM 44.4958 -93.3131 52° Northeast 165 190 4,000 -540 Descending Minneapolis Center
03:10PM 44.5231 -93.2597 54° Northeast 166 191 3,400 -480 Descending Minneapolis Center
03:11PM 44.5578 -93.2017 50° Northeast 165 190 3,000 -300 Descending Minneapolis Center
03:12PM 44.5903 -93.1622 41° Northeast 159 183 2,900 -120 Descending Minneapolis Center
03:13PM 44.6244 -93.1300 34° Northeast 151 174 2,800  Descending Minneapolis Center
03:14PM 44.6611 -93.1050 26° Northeast 150 173 2,900  Climbing Minneapolis Center
03:15PM 44.7058 -93.0775 24° Northeast 149 171 2,900 -300 Level Minneapolis Center
03:16PM 44.7381 -93.0333 44° Northeast 162 186 2,300 -360 Descending Minneapolis Center
03:17PM 44.7739 -93.0114 23° Northeast 142 163 2,200 -300 Descending Minneapolis Center
03:18PM 44.8103 -93.0028 10° North 137 158 1,800 -240 Descending Minneapolis Center
03:19PM 44.8442 -93.0056 357° North 122 140 1,800 -120 Level Minneapolis Center
03:20PM 44.8767 -93.0242 338° Northwest 116 133 1,600 -480 Descending Minneapolis Center
03:21PM 44.8575 -93.0322 197° South 104 120 900 -720 Descending Minneapolis Center